首页
METAR-TAF:

METAR-TAF

机场 :

利伯维尔, 加蓬

利伯維爾國際機場

纬度: 00-27N, 经度: 009-25E, 海拔: 12米

当前天气观测

该预报发布于29分钟前的14:00 UTC
风速8节,风向西转西南,在南转西南西之间变化
温度 30°C
湿度 75%
气压 1008 hPa
能见度10公里或以上
少量云层高于1500英尺

METAR: FOOL 221400Z 24008KT 200V260 9999 FEW015 30/25 Q1008 NOSIG

时间: 15:29 (14:29 UTC)

预报

该预报发布于3小时和29分钟前的11:00 UTC
预报有效从22日的 12点(UTC)到 23日的 18点(UTC)
风速7节,风向
能见度10公里或以上
散云层高于1500英尺
少量云层高于1800英尺, 积雨云.
短暂存在
从 22日的 18点(UTC)到 22日的 21点(UTC)
雷暴
短暂存在
从 23日的 00点(UTC)到 23日的 06点(UTC)
能見度: 2500
多云层高于600英尺
少量云层高于1500英尺, 积雨云.
阴天层高于2300英尺
雷暴, 雨

TAF: FOOL 221100Z 2212/2318 18007KT 9999 SCT015 FEW018CB TEMPO 2218/2221 TS TEMPO 2300/2306 2500 TSRA BKN006 FEW015CB OVC023

超过4000个机场的气象观测和天气预报(METAR&TAF报告)。

可查询的气象台以黄色和红色小点在地图上表示。

将鼠标移到小点上方,可查看气象台名称。

然后点击查看天气观测和预报。

如需切换地图:点击带黑十字的绿色按钮放大地图;点击带横线的绿色按钮缩小地图;或者点击绿色箭头查看邻近地区的地图。


METAR-TAF: